Goldfield, Nevada Weather observations

Data are for observation ending at time listed.
 Day   Time    Ave.   Ave.  Ave.  Vector   Max.   Stn.    Total    Solar   Ave.  
  of    of     Air    Rel.  Wind   Wind    Wind   Baro.  Precip.   Rad.    Soil  
Year   Day     Temp.  Hum.  Speed  Dir.    Gust   Pres.                    Temp. 
2014   (PST)    F      %     mph   deg.    mph     mb.     in.     W/m2     F   
------------------------------------------------------------------------------
 297   21:10   58.3    33    8.4   126     11.2   830.0    0.00       0    61.0
 297   21:20   58.5    33    8.7   124     11.5   830.1    0.00       0    61.0
 297   21:30   58.3    33    8.1   125     10.3   830.1    0.00       0    60.7
 297   21:40   58.0    34    8.0   130     11.0   830.1    0.00       0    60.8
 297   21:50   57.9    34    8.9   129     12.3   830.0    0.00       0    60.7
 297   22:00   58.3    34    8.8   125     12.7   829.9    0.00       0    60.6
 297   22:10   58.9    32    9.6   134     16.2   829.8    0.00       0    60.5
 297   22:20   59.9    32   11.9   140     18.9   829.8    0.00       0    60.4
 297   22:30   59.8    32   12.4   139     18.8   829.6    0.00       0    60.4
 297   22:40   59.7    33   12.4   130     18.7   829.5    0.00       0    60.3
 297   22:50   59.6    33   12.9   126     18.9   829.4    0.00       0    60.2
 297   23:00   60.0    32   14.7   127     20.2   829.4    0.00       0    60.2
 297   23:10   59.6    33   14.9   126     23.1   829.4    0.00       0    60.1
 297   23:20   60.0    32   15.1   130     22.3   829.5    0.00       0    60.0
 297   23:30   59.6    33   14.2   130     21.3   829.6    0.00       0    60.0
 297   23:40   59.5    33   14.0   134     20.5   829.6    0.00       0    60.1
 297   23:50   58.6    34   12.4   138     20.0   829.7    0.00       0    59.8
 298    0:00   58.5    34   12.5   127     18.2   829.7    0.00       0    60.0
 298    0:10   58.1    35   12.4   120     18.6   829.6    0.00       0    59.9
 298    0:20   57.6    35   11.4   117     17.6   829.6    0.00       0    59.6
 298    0:30   57.5    35   11.7   120     19.1   829.6    0.00       0    59.7
 298    0:40   57.4    36   10.9   117     15.9   829.6    0.00       0    59.5
 298    0:50   56.8    36   10.7   110     16.3   829.6    0.00       0    59.5
 298    1:00   56.3    37    9.0   111     14.1   829.6    0.00       0    59.5
 298    1:10   56.2    37    9.0   110     15.3   829.4    0.00       0    59.4
 298    1:20   55.6    38    8.4   138     14.0   829.4    0.00       0    59.3
 298    1:30   55.8    38   10.2   148     13.8   829.5    0.00       0    59.3
 298    1:40   55.2    39    8.9   129     12.0   829.3    0.00       0    59.2
 298    1:50   55.0    40    8.8   121     12.8   829.2    0.00       0    59.1
 298    2:00   54.3    41   10.6   126     14.1   829.1    0.00       0    59.0
 298    2:10   54.6    40   10.1   110     15.1   829.0    0.00       0    59.0
 298    2:20   54.7    41   11.5   107     17.7   828.8    0.00       0    59.0
 298    2:30   54.9    41   11.6   110     18.5   828.6    0.00       0    58.7
 298    2:40   55.4    40   11.8   110     21.1   828.4    0.00       0    58.8
 298    2:50   55.5    40   12.5   114     20.2   828.2    0.00       0    58.7
 298    3:00   55.1    40   14.2   108     21.4   828.1    0.00       0    58.6
 298    3:10   55.6    40   13.9   106     21.3   827.9    0.00       0    58.5
 298    3:20   55.0    40   14.1   109     21.5   828.0    0.00       0    58.5
 298    3:30   54.5    40   13.8   106     22.0   827.9    0.00       0    58.5
 298    3:40   54.3    40   12.7   110     20.0   827.9    0.00       0    58.4
 298    3:50   53.5    41   11.0   112     18.1   827.9    0.00       0    58.3
 298    4:00   53.0    42   11.5   114     16.8   827.8    0.00       0    58.2
 298    4:10   52.9    42   11.3   112     18.1   827.8    0.00       0    58.2
 298    4:20   52.9    41   10.0   118     16.6   827.8    0.00       0    58.1
 298    4:30   53.1    40   10.4   115     16.4   827.7    0.00       0    58.0
 298    4:40   53.8    39   13.4   125     21.1   827.6    0.00       0    57.9
 298    4:50   54.8    38   15.5   130     24.3   827.7    0.00       0    57.9
 298    5:00   54.8    39   15.9   135     25.7   827.7    0.00       0    57.7
 298    5:10   54.6    40   17.6   132     27.5   827.7    0.00       0    57.7
 298    5:20   54.5    40   17.5   130     22.8   827.8    0.00       0    57.6
 298    5:30   54.5    40   18.6   132     25.1   827.9    0.00       0    57.6
 298    5:40   54.8    39   18.3   120     25.4   827.8    0.00       0    57.6
 298    5:50   54.6    39   17.6   117     28.3   827.7    0.00       0    57.6
 298    6:00   54.2    40   16.1   114     27.9   827.6    0.00       1    57.4
 298    6:10   53.5    41   14.9   118     23.9   827.8    0.00       5    57.3
 298    6:20   53.2    41   14.0   118     23.2   828.1    0.00      10    57.4
 298    6:30   53.1    41   15.0   119     22.4   828.3    0.00      28    57.3
 298    6:40   53.4    41   14.5   118     22.0   828.4    0.00      56    57.3
 298    6:50   53.8    41   12.4   117     22.4   828.7    0.00      94    57.2
 298    7:00   54.4    40   13.1   125     18.9   828.8    0.00     130    57.1
 298    7:10   54.9    40   11.8   121     22.3   828.9    0.00     150    57.2
 298    7:20   55.2    40   12.8   120     21.5   829.0    0.00     189    57.1
 298    7:30   55.3    40   12.5   113     18.7   828.9    0.00     179    57.1
 298    7:40   55.2    40   11.2   111     17.8   828.9    0.00     223    57.1
 298    7:50   55.9    40   13.7   116     20.5   829.0    0.00     285    57.1
 298    8:00   56.7    39   13.0   125     20.2   829.1    0.00     287    57.1
 298    8:10   57.1    39   13.9   114     21.0   829.2    0.00     340    57.2
 298    8:20   56.7    40   14.5   117     23.2   829.0    0.00     188    57.2
 298    8:30   57.3    40   15.4   123     25.2   829.0    0.00     416    57.3
 298    8:40   57.7    40   14.8   126     23.8   828.9    0.00     177    57.1
 298    8:50   56.7    41   16.0   125     21.7   828.7    0.00     175    57.3
 298    9:00   57.9    40   16.3   122     24.9   828.8    0.00     446    57.3
 298    9:10   59.3    38   16.4   119     24.6   828.8    0.00     527    57.3
 298    9:20   60.2    37   17.6   123     26.5   828.8    0.00     550    57.4
 298    9:30   60.7    36   18.5   120     26.7   828.7    0.00     569    57.5
 298    9:40   60.9    35   18.2   113     27.5   828.7    0.00     588    57.5
 298    9:50   61.3    36   20.2   113     30.0   828.5    0.00     600    57.8
 298   10:00   62.4    34   18.0   119     28.9   828.5    0.00     626    58.0
 298   10:10   62.8    32   20.1   115     31.9   828.6    0.00     669    58.2
 298   10:20   63.3    30   19.3   114     29.3   828.4    0.00     649    58.5
 298   10:30   63.2    30   20.9   115     31.4   828.4    0.00     576    58.6
 298   10:40   62.9    30   18.5   112     29.8   828.4    0.00     553    58.7
 298   10:50   64.0    29   19.7   112     28.5   828.4    0.00     627    58.8
 298   11:00   63.7    28   20.1   114     29.9   828.2    0.00     551    58.9
 298   11:10   65.0    27   19.8   120     30.5   828.1    0.00     662    59.0
 298   11:20   65.0    23   21.6   124     34.1   827.8    0.00     535    59.1
 298   11:30   65.1    20   23.0   121     34.3   827.6    0.00     416    59.2
 298   11:40   65.3    19   24.5   126     32.3   827.5    0.00     521    59.3
 298   11:50   65.3    19   23.3   132     33.4   827.6    0.00     335    59.3
 298   12:00   65.4    17   21.1   135     30.0   827.5    0.00     304    59.4
 298   12:10   66.1    17   21.0   130     31.6   827.5    0.00     706    59.5
 298   12:20   66.5    18   19.0   129     28.1   827.4    0.00     671    59.6
 298   12:30   66.6    18   18.9   127     26.8   827.3    0.00     656    59.7
 298   12:40   67.5    17   18.7   129     30.2   827.1    0.00     644    59.8
 298   12:50   67.4    18   16.9   128     25.0   827.0    0.00     627    60.0
 298   13:00   67.9    18   18.0   142     30.2   827.0    0.00     609    60.2
 298   13:10   67.9    18   16.9   147     25.2   826.9    0.00     593    60.4
 298   13:20   68.1    18   16.9   143     25.6   827.0    0.00     571    60.5
 298   13:30   67.8    19   16.7   148     26.2   826.9    0.00     552    60.7
 298   13:40   67.8    18   16.1   126     25.9   826.9    0.00     530    60.9
 298   13:50   67.9    19   15.4   132     25.3   826.9    0.00     507    61.0
 298   14:00   67.7    19   15.1   116     28.0   827.0    0.00     482    61.2
 298   14:10   67.9    20   14.7   127     24.5   827.0    0.00     458    61.3
 298   14:20   68.4    20   14.1   136     23.3   826.9    0.00     433    61.5
 298   14:30   68.0    19   15.7   136     27.7   826.9    0.00     408    61.6
 298   14:40   68.2    18   14.2   144     21.8   826.8    0.00     380    61.7
 298   14:50   67.9    19   14.9   128     24.8   826.8    0.00     353    61.7
 298   15:00   67.9    19   15.1   137     22.0   826.9    0.00     324    61.9
 298   15:10   67.3    20   14.8   129     23.3   826.8    0.00     293    62.0
 298   15:20   67.3    20   16.8   120     26.3   826.6    0.00     262    62.0
 298   15:30   66.9    21   17.2   122     25.4   826.5    0.00     230    62.1
 298   15:40   66.6    21   18.2   123     27.4   826.3    0.00     200    62.2
 298   15:50   66.3    21   18.4   124     25.9   826.4    0.00     171    62.2
 298   16:00   66.1    21   16.5   123     25.4   826.5    0.00     142    62.3
 298   16:10   65.8    21   15.0   126     27.5   826.5    0.00     106    62.3
 298   16:20   65.3    21   15.0   126     23.9   826.5    0.00      71    62.3
 298   16:30   64.8    21   14.9   126     27.4   826.4    0.00      33    62.4
 298   16:40   64.3    22   13.9   126     20.5   826.4    0.00      17    62.4
 298   16:50   64.0    22   12.2   122     18.1   826.4    0.00      13    62.3
 298   17:00   63.5    22   12.5   126     22.6   826.2    0.00       8    62.3
 298   17:10   63.1    22   10.9   122     17.0   826.1    0.00       4    62.4
 298   17:20   62.8    21   11.4   124     18.3   826.2    0.00       0    62.3
 298   17:30   62.5    20   10.8   126     18.3   826.2    0.00       0    62.3
 298   17:40   62.3    19    9.9   128     15.6   826.4    0.00       0    62.2
 298   17:50   62.0    19    7.9   123     14.7   826.5    0.00       0    62.2
 298   18:00   61.1    19    7.4   100     11.5   826.5    0.00       0    62.1
 298   18:10   60.7    23    7.5   109     15.3   826.7    0.00       0    62.1
 298   18:20   59.9    26    6.1   135      9.9   826.9    0.00       0    62.0
 298   18:30   58.9    29    7.6   137     10.4   826.8    0.00       0    61.8
 298   18:40   58.5    32   10.1   139     17.3   826.6    0.00       0    61.8
 298   18:50   58.8    32   12.1   140     18.3   826.5    0.00       0    61.7
 298   19:00   59.1    28   11.8   140     17.3   826.4    0.00       0    61.7
 298   19:10   59.1    26   11.9   142     18.3   826.3    0.00       0    61.5
 298   19:20   58.8    24    9.8   148     15.5   826.2    0.00       0    61.4
 298   19:30   57.6    25    8.2   151     11.6   826.3    0.00       0    61.3
 298   19:40   57.1    26    8.5   151     11.8   826.3    0.00       0    61.1
 298   19:50   56.9    26    9.2   149     14.9   826.4    0.00       0    61.1
 298   20:00   56.9    25    9.7   146     15.1   826.3    0.00       0    61.0
 298   20:10   57.7    23   10.4   125     20.2   826.4    0.00       0    60.9
 298   20:20   55.9    27    5.8   110      9.6   826.8    0.00       0    60.8
 298   20:30   54.8    29    5.8   120      9.6   827.0    0.00       0    60.5
 298   20:40   54.2    30    8.3   131     10.6   827.1    0.00       0    60.6
 298   20:50   55.0    30   10.3   143     14.0   826.9    0.00       0    60.5
 298   21:00   54.6    30    9.8   161     12.9   826.8    0.00       0    60.4

Return to Goldfield, Nevada graphs page.


Western Regional Climate Center,wrcc@dri.edu